createdAt,value
2022-11-23T00:01:19.670Z,90.25
2022-11-23T00:03:48.136Z,89.96
2022-11-23T00:06:15.229Z,90.37
2022-11-23T00:08:42.249Z,90.98
2022-11-23T00:11:08.845Z,91.87
2022-11-23T00:13:35.484Z,91.24
2022-11-23T00:16:05.879Z,91.52
2022-11-23T00:18:32.407Z,92.15
2022-11-23T00:20:58.871Z,91.78
2022-11-23T00:23:25.341Z,91.48
2022-11-23T00:25:51.814Z,92.26
2022-11-23T00:28:18.265Z,91.79
2022-11-23T00:30:49.755Z,92.35
2022-11-23T00:33:16.865Z,92.42
2022-11-23T00:35:43.407Z,92.17
2022-11-23T00:38:09.839Z,92.17
2022-11-23T00:40:36.287Z,92.46
2022-11-23T00:43:02.775Z,93.61
2022-11-23T00:45:29.479Z,94.15
2022-11-23T00:47:55.905Z,94.89
2022-11-23T00:50:22.366Z,93.88
2022-11-23T00:52:48.747Z,94.12
2022-11-23T00:55:15.129Z,93.49
2022-11-23T00:57:41.509Z,92.82
2022-11-23T01:00:08.525Z,93.45
2022-11-23T01:02:36.160Z,92.85
2022-11-23T01:05:03.694Z,92.79
2022-11-23T01:07:30.699Z,92.90
2022-11-23T01:09:57.684Z,94.19
2022-11-23T01:12:24.138Z,93.06
2022-11-23T01:14:53.642Z,92.86
2022-11-23T01:17:20.129Z,93.04
2022-11-23T01:19:46.702Z,94.01
2022-11-23T01:22:13.161Z,93.28
2022-11-23T01:24:39.597Z,93.50
2022-11-23T01:27:06.004Z,93.19
2022-11-23T01:29:32.842Z,93.37
2022-11-23T01:31:59.447Z,93.88
2022-11-23T01:34:25.910Z,93.33
2022-11-23T01:36:52.290Z,92.89
2022-11-23T01:39:18.737Z,93.10
2022-11-23T01:41:45.762Z,93.92
2022-11-23T01:44:27.323Z,94.42
2022-11-23T01:46:55.000Z,94.46
2022-11-23T01:49:23.167Z,93.78
2022-11-23T01:51:53.092Z,94.17
2022-11-23T01:54:28.132Z,94.09
2022-11-23T01:57:02.712Z,94.59
2022-11-23T01:59:33.575Z,93.89
2022-11-23T02:02:00.797Z,93.94
2022-11-23T02:04:31.397Z,93.73
2022-11-23T02:07:01.173Z,94.49
2022-11-23T02:09:33.430Z,94.48
2022-11-23T02:12:01.132Z,94.08
2022-11-23T02:14:28.226Z,94.82
2022-11-23T02:16:58.108Z,94.71
2022-11-23T02:19:30.366Z,95.08
2022-11-23T02:21:57.180Z,93.81
2022-11-23T02:24:31.249Z,94.07
2022-11-23T02:26:58.075Z,93.76
2022-11-23T02:29:26.156Z,93.55
2022-11-23T02:34:37.866Z,92.81
2022-11-23T02:37:04.257Z,93.09
2022-11-23T02:39:40.654Z,93.35
2022-11-23T02:42:07.158Z,92.81
2022-11-23T02:45:00.417Z,90.70
2022-11-23T02:47:26.925Z,90.83
2022-11-23T02:49:53.380Z,91.64
2022-11-23T02:52:19.842Z,91.62
2022-11-23T02:54:46.626Z,91.25
2022-11-23T02:57:13.209Z,91.54
2022-11-23T02:59:39.611Z,89.44
2022-11-23T03:02:06.389Z,89.06
2022-11-23T03:04:32.860Z,88.56
2022-11-23T03:06:59.333Z,90.07
2022-11-23T03:09:26.494Z,89.71
2022-11-23T03:11:53.504Z,89.97
2022-11-23T03:14:20.985Z,90.41
2022-11-23T03:16:47.461Z,89.80
2022-11-23T03:19:14.004Z,89.83
2022-11-23T03:21:40.410Z,89.46
2022-11-23T03:24:06.884Z,89.96
2022-11-23T03:26:33.457Z,91.00
2022-11-23T03:28:59.851Z,92.18
2022-11-23T03:31:26.469Z,92.84
2022-11-23T03:33:52.905Z,92.06
2022-11-23T03:36:19.324Z,91.52
2022-11-23T03:38:45.806Z,91.59
2022-11-23T03:41:12.216Z,91.77
2022-11-23T03:43:38.645Z,90.79
2022-11-23T03:46:05.286Z,90.48
2022-11-23T03:48:31.780Z,90.87
2022-11-23T03:50:58.161Z,92.01
2022-11-23T03:53:24.619Z,90.56
2022-11-23T03:55:51.091Z,91.56
2022-11-23T03:58:17.522Z,90.37
2022-11-23T04:00:44.028Z,90.09
2022-11-23T04:03:10.505Z,91.15
2022-11-23T04:05:37.001Z,92.02
2022-11-23T04:08:04.241Z,92.21
2022-11-23T04:10:30.788Z,92.17
2022-11-23T04:12:57.638Z,91.67
2022-11-23T04:15:24.129Z,91.92
2022-11-23T04:17:50.694Z,92.58
2022-11-23T04:20:17.133Z,92.05
2022-11-23T04:22:43.589Z,92.28
2022-11-23T04:25:10.508Z,92.87
2022-11-23T04:27:36.960Z,93.07
2022-11-23T04:30:05.002Z,93.62
2022-11-23T04:32:31.529Z,93.39
2022-11-23T04:34:58.018Z,93.77
2022-11-23T04:37:24.508Z,94.16
2022-11-23T04:39:50.900Z,94.41
2022-11-23T04:42:17.371Z,95.61
2022-11-23T04:44:43.843Z,96.09
2022-11-23T04:47:11.045Z,98.21
2022-11-23T04:49:37.710Z,98.63
2022-11-23T04:52:05.085Z,98.72
2022-11-23T04:54:32.142Z,98.79
2022-11-23T04:56:58.562Z,97.69
2022-11-23T04:59:25.377Z,97.57
2022-11-23T05:01:52.397Z,98.52
2022-11-23T05:04:19.653Z,98.29
2022-11-23T05:06:46.763Z,98.32
2022-11-23T05:09:13.656Z,98.42
2022-11-23T05:11:40.230Z,97.34
2022-11-23T05:14:06.705Z,98.40
2022-11-23T05:16:33.232Z,97.92
2022-11-23T05:18:59.717Z,96.71
2022-11-23T05:21:26.207Z,96.70
2022-11-23T05:23:52.768Z,97.13
2022-11-23T05:26:19.284Z,97.42
2022-11-23T05:28:45.844Z,97.83
2022-11-23T05:31:12.417Z,97.66
2022-11-23T05:33:39.109Z,97.35
2022-11-23T05:36:05.875Z,96.65
2022-11-23T05:38:32.294Z,96.19
2022-11-23T05:40:58.721Z,95.93
2022-11-23T05:43:25.544Z,95.99
2022-11-23T05:45:51.930Z,95.04
2022-11-23T05:48:18.685Z,94.91
2022-11-23T05:50:45.104Z,93.73
2022-11-23T05:53:11.601Z,94.34
2022-11-23T05:55:38.055Z,94.45
2022-11-23T05:58:04.478Z,95.15
2022-11-23T06:00:30.938Z,96.54
2022-11-23T06:03:01.539Z,96.45
2022-11-23T06:05:29.082Z,97.49
2022-11-23T06:07:56.087Z,97.62
2022-11-23T06:10:23.138Z,95.95
2022-11-23T06:12:52.891Z,96.17
2022-11-23T06:15:19.531Z,95.11
2022-11-23T06:17:46.069Z,97.72
2022-11-23T06:20:12.619Z,95.57
2022-11-23T06:22:39.083Z,94.66
2022-11-23T06:25:05.962Z,94.76
2022-11-23T06:27:32.354Z,98.47
2022-11-23T06:29:58.759Z,96.12
2022-11-23T06:32:25.167Z,93.88
2022-11-23T06:34:51.622Z,93.22
2022-11-23T06:37:18.031Z,92.35
2022-11-23T06:39:44.802Z,92.33
2022-11-23T06:44:59.371Z,93.85
2022-11-23T06:47:26.665Z,93.16
2022-11-23T06:49:53.317Z,92.36
2022-11-23T06:52:20.003Z,94.69
2022-11-23T06:54:46.914Z,96.31
2022-11-23T06:57:13.559Z,96.99
2022-11-23T06:59:44.449Z,98.13
2022-11-23T07:02:12.019Z,96.97
2022-11-23T07:04:38.500Z,97.69
2022-11-23T07:07:05.079Z,97.84
2022-11-23T07:09:31.884Z,97.18
2022-11-23T07:11:58.502Z,98.49
2022-11-23T07:14:24.897Z,99.18
2022-11-23T07:16:51.653Z,99.13
2022-11-23T07:19:18.058Z,99.85
2022-11-23T07:21:45.419Z,99.49
2022-11-23T07:24:12.079Z,99.62
2022-11-23T07:26:38.478Z,99.67
2022-11-23T07:29:04.906Z,100.00
2022-11-23T07:31:31.580Z,100.00
2022-11-23T07:33:57.979Z,100.00
2022-11-23T07:36:24.792Z,100.00
2022-11-23T07:38:51.203Z,100.00
2022-11-23T07:41:17.631Z,99.62
2022-11-23T07:43:44.221Z,99.70
2022-11-23T07:46:10.622Z,100.00
2022-11-23T07:48:37.021Z,100.00
2022-11-23T07:51:03.724Z,99.74
2022-11-23T07:53:30.212Z,100.00
2022-11-23T07:56:00.627Z,100.00
2022-11-23T07:58:27.521Z,100.00
2022-11-23T08:00:54.006Z,99.32
2022-11-23T08:03:29.155Z,99.69
2022-11-23T08:05:56.639Z,98.72
2022-11-23T08:08:23.921Z,95.59
2022-11-23T08:10:53.959Z,92.94
2022-11-23T08:13:22.004Z,91.13
2022-11-23T08:15:54.272Z,87.76
2022-11-23T08:18:22.952Z,86.99
2022-11-23T08:20:49.434Z,84.67
2022-11-23T08:23:15.906Z,81.06
2022-11-23T08:25:42.338Z,79.53
2022-11-23T08:28:10.396Z,78.08
2022-11-23T08:30:37.574Z,76.22
2022-11-23T08:33:07.952Z,74.90
2022-11-23T08:35:38.595Z,72.79
2022-11-23T08:38:05.975Z,72.51
2022-11-23T08:40:32.700Z,70.78
2022-11-23T08:42:59.202Z,69.64
2022-11-23T08:45:26.312Z,68.11
2022-11-23T08:47:53.132Z,68.36
2022-11-23T08:50:20.253Z,66.33
2022-11-23T08:52:46.866Z,64.87
2022-11-23T08:55:14.340Z,62.71
2022-11-23T08:57:40.711Z,60.53
2022-11-23T09:00:07.906Z,60.15
2022-11-23T09:02:34.306Z,58.85
2022-11-23T09:05:00.798Z,58.04
2022-11-23T09:07:27.515Z,57.45
2022-11-23T09:09:54.033Z,57.70
2022-11-23T09:12:20.479Z,57.08
2022-11-23T09:14:46.879Z,55.90
2022-11-23T09:17:13.367Z,56.58
2022-11-23T09:19:39.847Z,56.23
2022-11-23T09:22:06.276Z,55.05
2022-11-23T09:24:32.937Z,55.53
2022-11-23T09:26:59.706Z,55.83
2022-11-23T09:29:26.633Z,54.35
2022-11-23T09:31:53.108Z,54.00
2022-11-23T09:34:19.578Z,52.80
2022-11-23T09:36:46.383Z,54.14
2022-11-23T09:39:12.926Z,53.65
2022-11-23T09:41:48.115Z,53.14
2022-11-23T09:44:40.183Z,52.32
2022-11-23T09:47:12.742Z,53.40
2022-11-23T09:49:50.917Z,50.48
2022-11-23T09:52:20.919Z,49.23
2022-11-23T09:54:49.909Z,49.75
2022-11-23T09:57:21.753Z,48.60
2022-11-23T10:00:07.853Z,49.27
2022-11-23T10:02:39.345Z,47.46
2022-11-23T10:05:07.371Z,47.74
2022-11-23T10:08:04.605Z,47.76
2022-11-23T10:10:45.575Z,46.22
2022-11-23T10:13:38.245Z,46.31
2022-11-23T10:16:26.197Z,44.87
2022-11-23T10:19:14.678Z,44.62
2022-11-23T10:22:00.254Z,43.61
2022-11-23T10:24:33.620Z,42.77
2022-11-23T10:27:02.515Z,43.17
2022-11-23T10:29:37.294Z,43.60
2022-11-23T10:32:07.092Z,43.78
2022-11-23T10:34:46.453Z,42.84
2022-11-23T10:37:16.070Z,43.43
2022-11-23T10:39:42.703Z,41.97
2022-11-23T10:42:25.259Z,41.64
2022-11-23T10:44:55.469Z,40.54
2022-11-23T10:47:42.780Z,40.44
2022-11-23T10:50:30.004Z,39.74
2022-11-23T10:53:12.434Z,40.74
2022-11-23T10:55:54.969Z,40.76
2022-11-23T10:58:37.595Z,39.41
2022-11-23T11:01:07.442Z,39.75
2022-11-23T11:03:35.319Z,40.20
2022-11-23T11:06:11.076Z,39.79
2022-11-23T11:08:53.874Z,39.33
2022-11-23T11:11:28.993Z,38.51
2022-11-23T11:14:15.336Z,38.70
2022-11-23T11:16:56.506Z,38.60
2022-11-23T11:19:27.455Z,37.09
2022-11-23T11:21:54.826Z,36.51
2022-11-23T11:24:24.162Z,35.62
2022-11-23T11:26:53.345Z,35.91
2022-11-23T11:29:47.209Z,35.20
2022-11-23T11:32:38.259Z,36.85
2022-11-23T11:35:20.827Z,35.32
2022-11-23T11:37:50.273Z,36.57
2022-11-23T11:40:33.271Z,36.74
2022-11-23T11:43:08.603Z,35.74
2022-11-23T11:45:54.454Z,36.71
2022-11-23T11:48:35.707Z,37.12
2022-11-23T11:51:13.680Z,37.35
2022-11-23T11:53:49.409Z,36.96
2022-11-23T11:56:23.768Z,36.95
2022-11-23T11:59:03.257Z,37.08
2022-11-23T12:01:48.191Z,36.63
2022-11-23T12:04:21.794Z,36.82
2022-11-23T12:07:12.723Z,35.85
2022-11-23T12:09:42.831Z,35.49
2022-11-23T12:12:17.456Z,36.48
2022-11-23T12:14:45.259Z,37.92
2022-11-23T12:17:32.809Z,38.54
2022-11-23T12:20:35.211Z,40.13
2022-11-23T12:23:29.861Z,39.23
2022-11-23T12:26:20.104Z,40.51
2022-11-23T12:29:11.282Z,41.70
2022-11-23T12:31:49.891Z,39.85
2022-11-23T12:34:40.977Z,40.97
2022-11-23T12:37:37.138Z,41.44
2022-11-23T12:40:22.927Z,42.70
2022-11-23T12:42:53.762Z,42.82
2022-11-23T12:45:45.157Z,43.36
2022-11-23T12:48:11.537Z,43.93
2022-11-23T12:50:47.867Z,44.88
2022-11-23T12:53:34.607Z,45.51
2022-11-23T12:56:31.906Z,45.06
2022-11-23T12:58:59.316Z,45.34
2022-11-23T13:01:31.735Z,45.10
2022-11-23T13:04:45.566Z,45.23
2022-11-23T13:07:35.997Z,44.67
2022-11-23T13:10:45.259Z,44.60
2022-11-23T13:13:25.077Z,45.32
2022-11-23T13:16:00.592Z,45.71
2022-11-23T13:18:51.218Z,45.58
2022-11-23T13:21:21.019Z,46.31
2022-11-23T13:23:47.789Z,46.75
2022-11-23T13:26:19.816Z,45.51
2022-11-23T13:28:48.882Z,47.58
2022-11-23T13:31:15.926Z,46.12
2022-11-23T13:33:47.938Z,46.75
2022-11-23T13:36:49.337Z,46.74
2022-11-23T13:39:43.717Z,46.88
2022-11-23T13:42:11.200Z,48.07
2022-11-23T13:44:37.793Z,47.83
2022-11-23T13:47:19.303Z,47.09
2022-11-23T13:49:52.772Z,47.80
2022-11-23T13:52:25.136Z,48.62
2022-11-23T13:55:17.889Z,48.48
2022-11-23T13:57:46.858Z,50.68
2022-11-23T14:00:47.380Z,51.56
2022-11-23T14:03:49.572Z,52.29
2022-11-23T14:06:45.617Z,53.96
2022-11-23T14:09:24.161Z,54.01
2022-11-23T14:12:06.817Z,54.35
2022-11-23T14:14:43.573Z,54.39
2022-11-23T14:17:29.753Z,54.30
2022-11-23T14:20:09.790Z,53.79
2022-11-23T14:22:54.441Z,54.61
2022-11-23T14:25:32.181Z,54.84
2022-11-23T14:28:23.259Z,54.83
2022-11-23T14:30:52.445Z,54.48
2022-11-23T14:33:40.761Z,55.67
2022-11-23T14:36:23.107Z,54.85
2022-11-23T14:39:36.394Z,54.51
2022-11-23T14:42:10.615Z,53.96
2022-11-23T14:44:40.848Z,55.08
2022-11-23T14:47:09.946Z,55.19
2022-11-23T14:49:38.016Z,54.05
2022-11-23T14:52:05.722Z,54.22
2022-11-23T14:54:32.758Z,55.36
2022-11-23T14:57:02.866Z,54.33
2022-11-23T14:59:39.328Z,54.41
2022-11-23T15:02:25.163Z,54.85
2022-11-23T15:04:57.589Z,54.99
2022-11-23T15:07:28.799Z,56.11
2022-11-23T15:10:23.054Z,55.98
2022-11-23T15:12:50.179Z,57.33
2022-11-23T15:15:24.954Z,57.19
2022-11-23T15:17:56.624Z,57.72
2022-11-23T15:20:28.149Z,57.62
2022-11-23T15:22:54.677Z,57.18
2022-11-23T15:25:21.633Z,57.44
2022-11-23T15:27:51.482Z,57.63
2022-11-23T15:30:21.134Z,58.53
2022-11-23T15:33:09.588Z,58.69
2022-11-23T15:35:39.392Z,58.91
2022-11-23T15:38:14.949Z,59.02
2022-11-23T15:40:45.635Z,58.91
2022-11-23T15:43:13.793Z,59.32
2022-11-23T15:45:46.513Z,59.70
2022-11-23T15:48:17.605Z,60.68
2022-11-23T15:50:51.517Z,62.76
2022-11-23T15:53:19.146Z,63.76
2022-11-23T15:55:46.275Z,63.83
2022-11-23T15:58:18.559Z,65.06
2022-11-23T16:01:05.440Z,64.55
2022-11-23T16:03:42.635Z,70.18
2022-11-23T16:06:16.566Z,73.03
2022-11-23T16:08:43.015Z,75.34
2022-11-23T16:11:34.804Z,77.09
2022-11-23T16:14:17.624Z,80.10
2022-11-23T16:16:46.647Z,83.55
2022-11-23T16:19:29.843Z,86.25
2022-11-23T16:22:02.737Z,88.70
2022-11-23T16:24:32.190Z,90.52
2022-11-23T16:26:59.369Z,91.80
2022-11-23T16:29:30.411Z,92.03
2022-11-23T16:32:02.835Z,93.25
2022-11-23T16:34:30.776Z,94.29
2022-11-23T16:36:59.123Z,96.38
2022-11-23T16:39:26.052Z,97.05
2022-11-23T16:41:52.683Z,97.02
2022-11-23T16:44:19.496Z,98.53
2022-11-23T16:46:49.331Z,98.22
2022-11-23T16:49:23.216Z,98.36
2022-11-23T16:51:57.222Z,99.40
2022-11-23T16:54:25.300Z,100.00
2022-11-23T16:56:52.730Z,100.00
2022-11-23T16:59:19.705Z,100.00
2022-11-23T17:01:52.583Z,100.00
2022-11-23T17:04:22.228Z,100.00
2022-11-23T17:06:49.024Z,100.00
2022-11-23T17:09:15.839Z,100.00
2022-11-23T17:11:45.161Z,100.00
2022-11-23T17:14:18.946Z,100.00
2022-11-23T17:16:46.137Z,100.00
2022-11-23T17:19:17.536Z,100.00
2022-11-23T17:21:44.763Z,100.00
2022-11-23T17:24:12.842Z,100.00
2022-11-23T17:26:46.254Z,100.00
2022-11-23T17:29:14.480Z,100.00
2022-11-23T17:31:43.551Z,100.00
2022-11-23T17:34:10.198Z,100.00
2022-11-23T17:36:37.026Z,100.00
2022-11-23T17:39:04.043Z,100.00
2022-11-23T17:41:30.506Z,100.00
2022-11-23T17:43:59.609Z,100.00
2022-11-23T17:46:27.935Z,100.00
2022-11-23T17:48:56.958Z,100.00
2022-11-23T17:51:23.900Z,100.00
2022-11-23T17:53:51.035Z,100.00
2022-11-23T17:56:20.234Z,100.00
2022-11-23T17:58:47.108Z,100.00
2022-11-23T18:01:15.611Z,100.00
2022-11-23T18:03:45.472Z,100.00
2022-11-23T18:06:23.208Z,100.00
2022-11-23T18:08:50.927Z,100.00
2022-11-23T18:11:18.408Z,99.29
2022-11-23T18:13:45.016Z,98.18
2022-11-23T18:16:11.560Z,98.41
2022-11-23T18:18:38.372Z,97.98
2022-11-23T18:21:06.184Z,97.46
2022-11-23T18:23:32.982Z,97.46
2022-11-23T18:26:00.283Z,97.63
2022-11-23T18:28:27.239Z,97.71
2022-11-23T18:30:54.455Z,95.77
2022-11-23T18:33:21.653Z,96.22
2022-11-23T18:35:48.224Z,95.80
2022-11-23T18:38:14.798Z,95.69
2022-11-23T18:40:41.603Z,95.63
2022-11-23T18:43:08.104Z,94.76
2022-11-23T18:45:34.501Z,95.19
2022-11-23T18:48:01.004Z,94.95
2022-11-23T18:50:27.683Z,94.89
2022-11-23T18:52:54.221Z,94.03
2022-11-23T18:55:20.767Z,94.39
2022-11-23T18:57:47.226Z,94.01
2022-11-23T19:00:15.889Z,94.30
2022-11-23T19:02:42.577Z,94.38
2022-11-23T19:05:09.306Z,94.64
2022-11-23T19:07:35.820Z,94.53
2022-11-23T19:10:02.341Z,93.90
2022-11-23T19:12:30.402Z,94.27
2022-11-23T19:14:57.042Z,94.37
2022-11-23T19:17:23.542Z,93.90
2022-11-23T19:19:49.985Z,94.63
2022-11-23T19:22:16.494Z,94.57
2022-11-23T19:24:42.957Z,94.98
2022-11-23T19:27:09.456Z,96.83
2022-11-23T19:29:36.258Z,98.13
2022-11-23T19:32:03.080Z,98.92
2022-11-23T19:34:29.556Z,100.00
2022-11-23T19:36:55.964Z,100.00
2022-11-23T19:39:22.456Z,100.00
2022-11-23T19:41:49.091Z,100.00
2022-11-23T19:44:15.646Z,100.00
2022-11-23T19:46:42.204Z,100.00
2022-11-23T19:49:08.856Z,100.00
2022-11-23T19:51:35.559Z,100.00
2022-11-23T19:54:02.190Z,100.00
2022-11-23T19:56:29.526Z,100.00
2022-11-23T19:58:58.188Z,96.71
2022-11-23T20:01:27.362Z,100.00
2022-11-23T20:03:55.530Z,100.00
2022-11-23T20:06:26.402Z,100.00
2022-11-23T20:08:57.960Z,100.00
2022-11-23T20:11:25.845Z,100.00
2022-11-23T20:13:53.218Z,100.00
2022-11-23T20:16:21.093Z,100.00
2022-11-23T20:18:53.418Z,100.00
2022-11-23T20:21:20.485Z,100.00
2022-11-23T20:23:47.765Z,100.00
2022-11-23T20:26:19.306Z,100.00
2022-11-23T20:28:51.298Z,100.00
2022-11-23T20:31:21.310Z,100.00
2022-11-23T20:33:51.468Z,100.00
2022-11-23T20:36:19.248Z,100.00
2022-11-23T20:38:46.425Z,100.00
2022-11-23T20:41:20.269Z,100.00
2022-11-23T20:43:48.786Z,100.00
2022-11-23T20:46:31.650Z,100.00
2022-11-23T20:49:02.598Z,100.00
2022-11-23T20:51:30.209Z,100.00
2022-11-23T20:53:57.282Z,100.00
2022-11-23T20:56:27.120Z,100.00
2022-11-23T20:58:56.405Z,100.00
2022-11-23T21:01:24.080Z,100.00
2022-11-23T21:03:53.182Z,100.00
2022-11-23T21:06:21.090Z,100.00
2022-11-23T21:08:49.167Z,100.00
2022-11-23T21:11:40.310Z,100.00
2022-11-23T21:14:31.726Z,100.00
2022-11-23T21:17:00.086Z,100.00
2022-11-23T21:19:31.836Z,100.00
2022-11-23T21:22:01.997Z,100.00
2022-11-23T21:24:28.914Z,100.00
2022-11-23T21:26:55.377Z,100.00
2022-11-23T21:29:21.881Z,100.00
2022-11-23T21:31:49.171Z,100.00
2022-11-23T21:34:19.445Z,100.00
2022-11-23T21:36:46.448Z,100.00
2022-11-23T21:39:13.743Z,100.00
2022-11-23T21:41:40.901Z,100.00
2022-11-23T21:44:09.043Z,100.00
2022-11-23T21:46:37.822Z,100.00
2022-11-23T21:49:06.561Z,100.00
2022-11-23T21:51:33.935Z,100.00
2022-11-23T21:54:03.204Z,100.00
2022-11-23T21:56:30.198Z,100.00
2022-11-23T21:58:58.949Z,100.00
2022-11-23T22:01:28.273Z,100.00
2022-11-23T22:03:57.970Z,100.00
2022-11-23T22:06:24.656Z,100.00
2022-11-23T22:08:53.932Z,100.00
2022-11-23T22:11:22.951Z,100.00
2022-11-23T22:13:54.047Z,100.00
2022-11-23T22:16:22.652Z,100.00
2022-11-23T22:18:55.167Z,100.00
2022-11-23T22:21:24.862Z,100.00
2022-11-23T22:23:51.923Z,100.00
2022-11-23T22:26:19.373Z,100.00
2022-11-23T22:28:48.621Z,100.00
2022-11-23T22:31:17.958Z,100.00
2022-11-23T22:33:44.920Z,100.00
2022-11-23T22:36:20.636Z,100.00
2022-11-23T22:38:47.646Z,100.00
2022-11-23T22:41:16.691Z,100.00
2022-11-23T22:43:44.078Z,100.00
2022-11-23T22:46:12.598Z,100.00
2022-11-23T22:48:41.024Z,100.00
2022-11-23T22:51:09.914Z,100.00
2022-11-23T22:53:44.607Z,100.00
2022-11-23T22:56:19.761Z,100.00
2022-11-23T22:58:47.844Z,100.00
2022-11-23T23:01:20.159Z,100.00
2022-11-23T23:03:46.920Z,100.00
2022-11-23T23:06:21.531Z,100.00
2022-11-23T23:08:53.018Z,100.00
2022-11-23T23:11:21.214Z,100.00
2022-11-23T23:13:47.755Z,100.00
2022-11-23T23:16:14.684Z,100.00
2022-11-23T23:18:42.625Z,100.00
2022-11-23T23:21:12.060Z,100.00
2022-11-23T23:23:40.719Z,100.00
2022-11-23T23:26:07.936Z,100.00
2022-11-23T23:28:35.250Z,100.00
2022-11-23T23:31:04.022Z,100.00
2022-11-23T23:33:33.179Z,100.00
2022-11-23T23:36:11.007Z,100.00
2022-11-23T23:38:37.972Z,100.00
2022-11-23T23:41:05.899Z,100.00
2022-11-23T23:43:32.733Z,100.00
2022-11-23T23:46:01.975Z,100.00
2022-11-23T23:48:30.177Z,100.00
2022-11-23T23:50:56.804Z,100.00
2022-11-23T23:53:23.541Z,100.00
2022-11-23T23:55:57.963Z,100.00
2022-11-23T23:58:25.207Z,100.00
